aviador You're here:

KBGM Decoded Metar

BINGHAMTON in NY, USA
Report Time2017-12-17 07:53:00
UTC Time2017-12-17 08:13:02
Flight Rules mvfr MVFR
Wind250° at 03 kt
W.Decomp.*RWY 28: 2.9 kt HW 0.9 kt LCW
RWY 34: 0.6 kt HW 2.9 kt LCW
W.Rank250° ranks 19
Current wind is below 250° avg. (7.2)
Visibility9999 m
Phenomena:N/A
Clouds:Overcast 019 Hf
Expected CloudBase > 1,600 ft AGL from Temp-Dew spread
Ceiling1,900 ft
Temp-7°C (ISA -19)
Dew Point-11°C (73% RH)
AAT-11.2°C
QNH1021 hPa
Density Alt-948 ft
Elevation1,608 ft
Report Wrong Elevation
Raw Report
KBGM 170753Z AUTO 25003KT 10SM OVC019 M07/M11 A3016 RMK AO2 SLP237
T10721106=

Extra information for KBGM:More info

Metar Taf Metar & Taf Last 4 Metars F.Rules Stats Wind Profile Meteogram Temp Stats Airport Information Weather charts Add Link Nearby VenuesMetar ALERT Operation Metar Decoded Social comments

AIRNAV info for KBGM